Banda Sea — D5CS3 — position and weather

sailwx.info

Track history (hours):
 
Tides and Currents Weather Stations Pressure Air Temp Water Temp Dewpoint Dewpoint Depression Visibility Wind Speed Wind Dir Waves Ship Positions

Banda Sea

Last reported at 2017-Nov-08 16:50 UTC. Time now 2017-Nov-20 12:05 UTC.
Position N 48°14' W 125°47'.
Warning: this ship's position is 11 days out of date.

Length 238 m; draft 8.2 m.

Type: Ship. MMSI: 636015767.

Date/timePositionNaut miles runAvg speedWind from/ knotsBaromVisibWave heightAir tempDewpointWater temp
2017-Nov-08 16:50N 48°14' W 125°47'3 7.0
2017-Nov-08 16:28N 48°15' W 125°44'3 7.4
2017-Nov-08 16:00N 48°17' W 125°40'3 6.9
2017-Nov-08 15:30N 48°19' W 125°35'3 6.9
2017-Nov-08 15:00N 48°21' W 125°31'3 6.4
2017-Nov-08 14:28N 48°23' W 125°27'4 7.9
2017-Nov-08 13:59N 48°25' W 125°22'4 8.0
2017-Nov-08 13:30N 48°27' W 125°18'4 8.1
2017-Nov-08 13:00N 48°29' W 125°12'4 8.5
2017-Nov-08 12:29N 48°31' W 125°06'4 9.0
2017-Nov-08 12:00N 48°31' W 124°60'5 9.6
2017-Nov-08 11:30N 48°31' W 124°53'5 9.2
2017-Nov-08 11:00N 48°31' W 124°46'510.5
2017-Nov-08 10:30N 48°29' W 124°38'713.4
2017-Nov-08 10:00N 48°26' W 124°29'713.9
2017-Nov-08 09:30N 48°24' W 124°19'714.0
2017-Nov-08 09:00N 48°21' W 124°10'714.1
2017-Nov-08 08:30N 48°18' W 123°60'815.3
2017-Nov-08 08:00N 48°17' W 123°49'816.8
2017-Nov-08 07:31N 48°15' W 123°36'815.1
2017-Nov-08 06:58N 48°12' W 123°25'4 9.4
2017-Nov-08 06:31N 48°09' W 123°20'713.2
2017-Nov-08 06:00N 48°13' W 123°12'713.1
2017-Nov-08 05:30N 48°20' W 123°13'816.3
2017-Nov-08 05:00N 48°28' W 123°12'816.1
2017-Nov-08 04:31N 48°36' W 123°14'713.5
2017-Nov-08 04:00N 48°42' W 123°14'815.1
2017-Nov-08 03:30N 48°46' W 123°04'713.9
2017-Nov-08 03:00N 48°50' W 122°55'611.7
2017-Nov-08 02:30N 48°51' W 122°46'1 0.0
2017-Nov-06 22:59N 48°52' W 122°45'0 1.0
2017-Nov-06 22:30N 48°51' W 122°45'1 2.2
2017-Nov-06 22:00N 48°50' W 122°45'1 2.2
2017-Nov-06 21:30N 48°49' W 122°45'2 3.6
2017-Nov-06 20:59N 48°47' W 122°45'4 7.1
2017-Nov-06 20:29N 48°44' W 122°45'11 0.6
2017-Nov-06 02:29N 48°36' W 122°33'0 0.0
2017-Nov-06 01:56N 48°36' W 122°33'0 0.0
2017-Nov-06 01:26N 48°36' W 122°33'0 0.0
2017-Nov-06 00:59N 48°36' W 122°33'0 0.0
2017-Nov-06 00:29N 48°36' W 122°33'0 0.1
2017-Nov-05 23:50N 48°36' W 122°33'0 0.0
2017-Nov-05 23:23N 48°36' W 122°33'0 0.0
2017-Nov-05 22:56N 48°36' W 122°33'0 0.0
2017-Nov-05 22:29N 48°36' W 122°33'0 0.0
2017-Nov-05 21:59N 48°36' W 122°33'0 0.0
2017-Nov-05 21:29N 48°36' W 122°33'0 0.1
2017-Nov-05 20:59N 48°36' W 122°32'0 0.0
2017-Nov-05 20:29N 48°36' W 122°32'0 0.1
2017-Nov-05 19:59N 48°36' W 122°33'0 0.1
2017-Nov-05 19:29N 48°36' W 122°33'0 0.1
2017-Nov-05 18:50N 48°36' W 122°33'0 0.1
2017-Nov-05 18:26N 48°36' W 122°33'0 0.1
2017-Nov-05 17:59N 48°36' W 122°33'0 0.1
2017-Nov-05 17:26N 48°36' W 122°33'0 0.0
2017-Nov-05 16:53N 48°36' W 122°33'0 0.0
2017-Nov-05 16:11N 48°36' W 122°33'0 0.0
2017-Nov-05 15:47N 48°36' W 122°33'0 0.1
2017-Nov-05 15:23N 48°36' W 122°33'0 0.0
2017-Nov-05 14:56N 48°36' W 122°33'0 0.1
2017-Nov-05 14:29N 48°36' W 122°33'0 0.1
2017-Nov-05 13:44N 48°36' W 122°33'0 0.0
2017-Nov-05 13:26N 48°36' W 122°33'0 0.0
2017-Nov-05 12:59N 48°36' W 122°33'0 0.0
2017-Nov-05 12:20N 48°36' W 122°33'0 0.0
2017-Nov-05 11:59N 48°36' W 122°33'0 0.0
2017-Nov-05 11:29N 48°36' W 122°33'0 0.1
2017-Nov-05 10:59N 48°36' W 122°32'0 0.1
2017-Nov-05 10:26N 48°36' W 122°32'0 0.1
2017-Nov-05 09:53N 48°36' W 122°32'0 0.1
2017-Nov-05 09:23N 48°36' W 122°32'0 0.0
2017-Nov-05 08:56N 48°36' W 122°32'0 0.1
2017-Nov-05 08:29N 48°36' W 122°32'0 0.0
2017-Nov-05 07:56N 48°36' W 122°32'0 0.0
2017-Nov-05 07:29N 48°36' W 122°32'0 0.0
2017-Nov-05 06:59N 48°36' W 122°32'0 0.1
2017-Nov-05 06:26N 48°36' W 122°33'0 0.1
2017-Nov-05 05:56N 48°36' W 122°33'0 0.0
2017-Nov-05 05:23N 48°36' W 122°33'0 0.0
2017-Nov-05 04:59N 48°36' W 122°33'0 0.1
2017-Nov-05 04:29N 48°36' W 122°33'0 0.0
2017-Nov-05 03:59N 48°36' W 122°33'0 0.1
2017-Nov-05 03:29N 48°36' W 122°33'0 0.1
2017-Nov-05 02:59N 48°36' W 122°33'0 0.1
2017-Nov-05 02:23N 48°36' W 122°33'0 0.0
2017-Nov-05 01:59N 48°36' W 122°33'0 0.1
2017-Nov-05 01:20N 48°36' W 122°33'0 0.2
2017-Nov-05 00:59N 48°36' W 122°33'0 0.2
2017-Nov-05 00:29N 48°36' W 122°33'0 0.1
2017-Nov-04 23:56N 48°36' W 122°32'0 0.1
2017-Nov-04 23:29N 48°36' W 122°32'0 0.0
2017-Nov-04 22:59N 48°36' W 122°32'0 0.0
2017-Nov-04 22:29N 48°36' W 122°32'0 0.0
2017-Nov-04 21:59N 48°36' W 122°32'0 0.0
2017-Nov-04 21:29N 48°36' W 122°32'0 0.2
2017-Nov-04 20:59N 48°36' W 122°33'0 0.2
2017-Nov-04 20:14N 48°36' W 122°33'0 0.0
2017-Nov-04 19:59N 48°36' W 122°33'0 0.0
2017-Nov-04 19:14N 48°36' W 122°33'0 0.0
2017-Nov-04 18:52N 48°36' W 122°33'0 0.1
2017-Nov-04 18:28N 48°36' W 122°33'0 0.1
2017-Nov-04 17:59N 48°36' W 122°33'0 0.1
2017-Nov-04 17:26N 48°36' W 122°33'0 0.1
2017-Nov-04 16:47N 48°36' W 122°33'0 0.0
2017-Nov-04 15:53N 48°36' W 122°33'0 0.1
2017-Nov-04 15:23N 48°36' W 122°33'0 0.1
2017-Nov-04 14:53N 48°36' W 122°33'0 0.1
2017-Nov-04 14:29N 48°36' W 122°33'0 0.1
2017-Nov-04 13:50N 48°36' W 122°33'0 0.0
2017-Nov-04 13:26N 48°36' W 122°33'0 0.1
2017-Nov-04 12:59N 48°36' W 122°33'0 0.0
2017-Nov-04 12:29N 48°36' W 122°33'0 0.1
2017-Nov-04 11:56N 48°36' W 122°32'0 0.0
2017-Nov-04 11:29N 48°36' W 122°32'0 0.0
2017-Nov-04 10:59N 48°36' W 122°32'0 0.0
2017-Nov-04 10:29N 48°36' W 122°32'0 0.1
2017-Nov-04 09:56N 48°36' W 122°32'0 0.1
2017-Nov-04 09:29N 48°36' W 122°32'0 0.1
2017-Nov-04 08:59N 48°36' W 122°32'0 0.1
2017-Nov-04 08:29N 48°36' W 122°32'0 0.1
2017-Nov-04 07:56N 48°36' W 122°33'0 0.0
2017-Nov-04 07:26N 48°36' W 122°33'0 0.1
2017-Nov-04 06:56N 48°36' W 122°33'0 0.1
2017-Nov-04 06:26N 48°36' W 122°33'0 0.1
2017-Nov-04 05:59N 48°36' W 122°33'0 0.1
2017-Nov-04 05:20N 48°36' W 122°33'0 0.1
2017-Nov-04 04:53N 48°36' W 122°33'0 0.0
2017-Nov-04 04:20N 48°36' W 122°33'0 0.0
2017-Nov-04 03:56N 48°36' W 122°33'0 0.0
2017-Nov-04 03:29N 48°36' W 122°33'0 0.0
2017-Nov-04 02:50N 48°36' W 122°33'0 0.0
2017-Nov-04 02:29N 48°36' W 122°33'0 0.0
2017-Nov-04 01:56N 48°36' W 122°33'0 0.0
2017-Nov-04 01:26N 48°36' W 122°33'0 0.0
2017-Nov-04 00:59N 48°36' W 122°33'0 0.1
2017-Nov-04 00:29N 48°36' W 122°33'0 0.1
2017-Nov-03 23:56N 48°36' W 122°33'0 0.1
2017-Nov-03 23:29N 48°36' W 122°33'0 0.0
2017-Nov-03 22:56N 48°36' W 122°33'0 0.0
2017-Nov-03 22:29N 48°36' W 122°33'0 0.0
2017-Nov-03 21:44N 48°36' W 122°33'0 0.0
2017-Nov-03 21:26N 48°36' W 122°33'0 0.0
2017-Nov-03 20:56N 48°36' W 122°33'0 0.0
2017-Nov-03 20:29N 48°36' W 122°33'0 0.0
2017-Nov-03 19:56N 48°36' W 122°33'0 0.0
2017-Nov-03 19:26N 48°36' W 122°33'0 0.0
2017-Nov-03 18:56N 48°36' W 122°33'0 0.0
2017-Nov-03 18:29N 48°36' W 122°33'0 0.0
2017-Nov-03 17:53N 48°36' W 122°33'0 0.0
2017-Nov-03 17:29N 48°36' W 122°33'0 0.0
2017-Nov-03 16:59N 48°36' W 122°33'0 0.1
2017-Nov-03 16:29N 48°36' W 122°33'0 0.0
2017-Nov-03 15:56N 48°36' W 122°33'0 0.0
2017-Nov-03 15:26N 48°36' W 122°33'0 0.1
2017-Nov-03 14:59N 48°36' W 122°33'0 0.1
2017-Nov-03 14:26N 48°36' W 122°33'0 0.1
2017-Nov-03 13:56N 48°36' W 122°33'0 0.2
2017-Nov-03 13:26N 48°36' W 122°33'0 0.1
2017-Nov-03 12:59N 48°36' W 122°32'0 0.0
2017-Nov-03 12:29N 48°36' W 122°32'0 0.0
2017-Nov-03 11:59N 48°36' W 122°32'0 0.1
2017-Nov-03 11:23N 48°36' W 122°33'0 0.1
2017-Nov-03 10:53N 48°36' W 122°33'0 0.1
2017-Nov-03 10:29N 48°36' W 122°33'0 0.0
2017-Nov-03 09:59N 48°36' W 122°33'0 0.0
2017-Nov-03 09:29N 48°36' W 122°33'0 0.1
2017-Nov-03 08:50N 48°36' W 122°33'0 0.0
2017-Nov-03 08:23N 48°36' W 122°33'0 0.0
2017-Nov-03 07:56N 48°36' W 122°33'0 0.1
2017-Nov-03 07:29N 48°36' W 122°33'0 0.1
2017-Nov-03 06:56N 48°36' W 122°33'0 0.1
2017-Nov-03 06:20N 48°36' W 122°33'0 0.1
2017-Nov-03 05:53N 48°36' W 122°33'0 0.1
2017-Nov-03 05:29N 48°36' W 122°33'0 0.0
2017-Nov-03 04:56N 48°36' W 122°33'0 0.0
2017-Nov-03 04:29N 48°36' W 122°33'0 0.0
2017-Nov-03 03:59N 48°36' W 122°33'0 0.1
2017-Nov-03 03:29N 48°36' W 122°33'0 0.1
2017-Nov-03 02:59N 48°36' W 122°33'0 0.0
2017-Nov-03 02:29N 48°36' W 122°33'0 0.2
2017-Nov-03 01:59N 48°36' W 122°33'0 0.2
2017-Nov-03 01:29N 48°36' W 122°33'0 0.2
2017-Nov-03 00:59N 48°36' W 122°33'0 0.1
2017-Nov-03 00:26N 48°36' W 122°33'0 0.4
2017-Nov-02 23:59N 48°36' W 122°32'0 0.3
2017-Nov-02 23:29N 48°36' W 122°32'0 0.1
2017-Nov-02 22:59N 48°36' W 122°32'0 0.1
2017-Nov-02 22:29N 48°36' W 122°32'0 0.0
2017-Nov-02 21:59N 48°36' W 122°32'0 0.1
2017-Nov-02 21:23N 48°36' W 122°32'0 0.1
2017-Nov-02 20:59N 48°36' W 122°32'0 0.0
2017-Nov-02 20:29N 48°36' W 122°32'0 0.1
2017-Nov-02 19:59N 48°36' W 122°32'0 0.1
2017-Nov-02 19:29N 48°36' W 122°32'0 0.3
2017-Nov-02 18:53N 48°36' W 122°33'0 0.0
2017-Nov-02 18:29N 48°36' W 122°33'0 0.0
2017-Nov-02 17:59N 48°36' W 122°33'0 0.0
2017-Nov-02 17:29N 48°36' W 122°33'0 0.0
2017-Nov-02 16:11N 48°36' W 122°33'0 0.0
2017-Nov-02 15:59N 48°36' W 122°33'0 0.0
2017-Nov-02 15:26N 48°36' W 122°33'0 0.0
2017-Nov-02 14:59N 48°36' W 122°33'0 0.0
2017-Nov-02 14:29N 48°36' W 122°33'0 0.2
2017-Nov-02 13:56N 48°36' W 122°33'0 0.0
2017-Nov-02 13:29N 48°36' W 122°33'0 0.1
2017-Nov-02 12:59N 48°36' W 122°33'0 0.0
2017-Nov-02 12:29N 48°36' W 122°33'0 0.1
2017-Nov-02 11:59N 48°36' W 122°33'0 0.0
2017-Nov-02 11:29N 48°36' W 122°33'0 0.0
2017-Nov-02 10:59N 48°36' W 122°33'0 0.0
2017-Nov-02 10:26N 48°36' W 122°33'0 0.0
2017-Nov-02 09:59N 48°36' W 122°33'0 0.0
2017-Nov-02 09:29N 48°36' W 122°33'0 0.0
2017-Nov-02 08:59N 48°36' W 122°33'0 0.0
2017-Nov-02 08:29N 48°36' W 122°33'0 0.0
2017-Nov-02 07:59N 48°36' W 122°33'0 0.0
2017-Nov-02 07:26N 48°36' W 122°33'0 0.1
2017-Nov-02 06:50N 48°36' W 122°33'0 0.1
2017-Nov-02 06:29N 48°36' W 122°33'0 0.2
2017-Nov-02 05:59N 48°36' W 122°33'0 0.1
2017-Nov-02 05:29N 48°36' W 122°33'0 0.0
2017-Nov-02 04:59N 48°36' W 122°33'0 0.0
2017-Nov-02 04:29N 48°36' W 122°33'0 0.0
2017-Nov-02 03:59N 48°36' W 122°33'0 0.1
2017-Nov-02 03:26N 48°36' W 122°33'0 0.0
2017-Nov-02 02:59N 48°36' W 122°33'0 0.0
2017-Nov-02 02:29N 48°36' W 122°33'0 0.2
2017-Nov-02 01:56N 48°36' W 122°33'0 0.1
2017-Nov-02 01:29N 48°36' W 122°33'0 0.1
2017-Nov-02 00:56N 48°36' W 122°33'0 0.0
2017-Nov-02 00:29N 48°36' W 122°33'0 0.0
2017-Nov-01 23:56N 48°36' W 122°33'0 0.0
2017-Nov-01 23:29N 48°36' W 122°33'0 0.1
2017-Nov-01 22:59N 48°36' W 122°32'0 0.0
2017-Nov-01 22:29N 48°36' W 122°32'0 0.0
2017-Nov-01 21:59N 48°36' W 122°32'0 0.0
2017-Nov-01 21:29N 48°36' W 122°32'0 0.0
2017-Nov-01 20:56N 48°36' W 122°32'0 0.1
2017-Nov-01 20:29N 48°36' W 122°32'0 0.0
2017-Nov-01 19:59N 48°36' W 122°32'0 0.0
2017-Nov-01 19:29N 48°36' W 122°32'0 0.1
2017-Nov-01 18:59N 48°36' W 122°32'0 0.0
2017-Nov-01 18:29N 48°36' W 122°32'0 0.0
2017-Nov-01 01:59N 48°36' W 122°33'0 0.2
2017-Nov-01 01:29N 48°36' W 122°33'0 0.2
2017-Nov-01 00:59N 48°36' W 122°32'0 0.1
2017-Nov-01 00:29N 48°36' W 122°32'0 0.1
2017-Oct-31 23:59N 48°36' W 122°32'0 0.0
2017-Oct-31 23:29N 48°36' W 122°32'0 0.1
2017-Oct-31 22:56N 48°36' W 122°32'0 0.0
2017-Oct-31 22:29N 48°36' W 122°32'0 0.1
2017-Oct-31 21:59N 48°36' W 122°32'0 0.1
2017-Oct-31 21:29N 48°36' W 122°32'0 0.0
2017-Oct-31 20:59N 48°36' W 122°32'0 0.1
2017-Oct-31 20:29N 48°36' W 122°32'0 0.0
2017-Oct-31 19:59N 48°36' W 122°32'0 0.1
2017-Oct-31 19:29N 48°36' W 122°32'0 0.1
2017-Oct-31 18:59N 48°36' W 122°32'0 0.0
2017-Oct-31 18:29N 48°36' W 122°32'0 0.0
2017-Oct-31 17:59N 48°36' W 122°32'0 0.0
2017-Oct-31 17:23N 48°36' W 122°32'0 0.1
2017-Oct-31 16:59N 48°36' W 122°33'0 0.1
2017-Oct-31 16:29N 48°36' W 122°33'0 0.1
2017-Oct-31 15:59N 48°36' W 122°33'0 0.1
2017-Oct-31 15:29N 48°36' W 122°32'0 0.0
2017-Oct-31 14:59N 48°36' W 122°32'0 0.1
2017-Oct-31 14:29N 48°36' W 122°32'0 0.0
2017-Oct-31 13:53N 48°36' W 122°32'0 0.2
2017-Oct-31 13:20N 48°36' W 122°32'0 0.1
2017-Oct-31 12:59N 48°36' W 122°32'0 0.0
2017-Oct-31 12:29N 48°36' W 122°32'0 0.1
2017-Oct-31 11:59N 48°36' W 122°32'0 0.0
2017-Oct-31 11:26N 48°36' W 122°32'0 0.0
2017-Oct-31 10:59N 48°36' W 122°32'0 0.0
2017-Oct-31 10:29N 48°36' W 122°32'0 0.0
2017-Oct-31 09:59N 48°36' W 122°32'0 0.0
2017-Oct-31 09:29N 48°36' W 122°32'0 0.0
2017-Oct-31 08:59N 48°36' W 122°32'0 0.1
2017-Oct-31 08:29N 48°36' W 122°32'0 0.0
2017-Oct-31 07:59N 48°36' W 122°32'0 0.0
2017-Oct-31 07:29N 48°36' W 122°32'0 0.0
2017-Oct-31 06:59N 48°36' W 122°32'0 0.3
2017-Oct-31 06:29N 48°36' W 122°33'0 0.2
2017-Oct-31 05:56N 48°36' W 122°33'0 0.0
2017-Oct-31 05:29N 48°36' W 122°33'0 0.1
2017-Oct-31 04:53N 48°36' W 122°33'0 0.1
2017-Oct-31 04:23N 48°36' W 122°33'0 0.0
2017-Oct-31 03:59N 48°36' W 122°33'0 0.0
2017-Oct-31 03:29N 48°36' W 122°33'0 0.0
2017-Oct-31 02:59N 48°36' W 122°33'0 0.0
2017-Oct-31 02:29N 48°36' W 122°33'0 0.0
2017-Oct-31 01:59N 48°36' W 122°33'0 0.0
2017-Oct-31 01:23N 48°36' W 122°33'0 0.1
2017-Oct-31 00:59N 48°36' W 122°33'0 0.0
2017-Oct-31 00:23N 48°36' W 122°33'0 0.0
2017-Oct-30 23:59N 48°36' W 122°33'0 0.0
2017-Oct-30 23:29N 48°36' W 122°33'0 0.1
2017-Oct-30 22:59N 48°36' W 122°32'0 0.0
2017-Oct-30 22:23N 48°36' W 122°32'0 0.1
2017-Oct-30 21:56N 48°36' W 122°32'0 0.1
2017-Oct-30 21:23N 48°36' W 122°32'0 0.1
2017-Oct-30 20:59N 48°36' W 122°32'0 0.1
2017-Oct-30 20:29N 48°36' W 122°32'0 0.0
2017-Oct-30 19:59N 48°36' W 122°32'0 0.0
2017-Oct-30 19:29N 48°36' W 122°32'0 0.1
2017-Oct-30 18:59N 48°36' W 122°32'0 0.1
2017-Oct-30 18:29N 48°36' W 122°32'0 0.0
2017-Oct-30 17:59N 48°36' W 122°32'0 0.1
2017-Oct-30 17:29N 48°36' W 122°32'0 0.1
2017-Oct-30 16:59N 48°36' W 122°32'0 0.1
2017-Oct-30 16:29N 48°36' W 122°32'0 0.0
2017-Oct-30 15:56N 48°36' W 122°32'0 0.1
2017-Oct-30 15:11N 48°36' W 122°33'0 0.2
2017-Oct-30 14:59N 48°36' W 122°32'0 0.1
2017-Oct-30 14:29N 48°36' W 122°33'0 0.0
2017-Oct-30 13:26N 48°36' W 122°33'0 0.1
2017-Oct-30 12:59N 48°36' W 122°33'0 0.1
2017-Oct-30 12:29N 48°36' W 122°32'0 0.1
2017-Oct-30 11:56N 48°36' W 122°32'0 0.1
2017-Oct-30 11:29N 48°36' W 122°32'0 0.1
2017-Oct-30 10:59N 48°36' W 122°32'0 0.0
2017-Oct-30 10:29N 48°36' W 122°32'0 0.0
2017-Oct-30 09:59N 48°36' W 122°32'0 0.0
2017-Oct-30 09:29N 48°36' W 122°32'0 0.0
2017-Oct-30 08:53N 48°36' W 122°32'0 0.0
2017-Oct-30 08:29N 48°36' W 122°32'0 0.0
2017-Oct-30 07:50N 48°36' W 122°32'0 0.0
2017-Oct-30 07:26N 48°36' W 122°32'0 0.0
2017-Oct-30 06:56N 48°36' W 122°32'0 0.0
2017-Oct-30 06:29N 48°36' W 122°32'0 0.0
2017-Oct-30 05:59N 48°36' W 122°32'0 0.1
2017-Oct-30 05:29N 48°36' W 122°32'0 0.0
2017-Oct-30 04:59N 48°36' W 122°32'0 0.1
2017-Oct-30 04:23N 48°36' W 122°32'0 0.0
2017-Oct-30 03:56N 48°36' W 122°32'0 0.1
2017-Oct-30 03:26N 48°36' W 122°32'0 0.1
2017-Oct-30 02:59N 48°36' W 122°33'0 0.0
2017-Oct-30 02:29N 48°36' W 122°33'0 0.1
2017-Oct-30 01:59N 48°36' W 122°33'0 0.1
2017-Oct-30 01:26N 48°36' W 122°33'0 0.1
2017-Oct-30 00:50N 48°36' W 122°33'0 0.1
2017-Oct-30 00:29N 48°36' W 122°33'0 0.1
2017-Oct-29 23:59N 48°36' W 122°33'0 0.0
2017-Oct-29 23:29N 48°36' W 122°33'0 0.1
2017-Oct-29 22:59N 48°36' W 122°33'0 0.0
2017-Oct-29 22:29N 48°36' W 122°33'0 0.0
2017-Oct-29 21:59N 48°36' W 122°33'0 0.0
2017-Oct-29 21:26N 48°36' W 122°33'0 0.1
2017-Oct-29 20:53N 48°36' W 122°32'0 0.1
2017-Oct-29 20:29N 48°36' W 122°32'0 0.1
2017-Oct-29 19:59N 48°36' W 122°32'0 0.0
2017-Oct-29 19:29N 48°36' W 122°32'0 0.0
2017-Oct-29 18:50N 48°36' W 122°32'0 0.0
2017-Oct-29 18:26N 48°36' W 122°32'0 0.1
2017-Oct-29 17:59N 48°36' W 122°32'0 0.1
2017-Oct-29 17:26N 48°36' W 122°32'0 0.1
2017-Oct-29 16:59N 48°36' W 122°32'  
Track history (hours):
 
Tides and Currents Weather Stations Pressure Air Temp Water Temp Dewpoint Dewpoint Depression Visibility Wind Speed Wind Dir Waves Ship Positions

Banda Sea

Last reported at 2017-Nov-08 16:50 UTC. Time now 2017-Nov-20 12:05 UTC.
Position N 48°14' W 125°47'.
Warning: this ship's position is 11 days out of date.

Length 238 m; draft 8.2 m.

Type: Ship. MMSI: 636015767.

Date/timePositionNaut miles runAvg speedWind from/ knotsBaromVisibWave heightAir tempDewpointWater temp
2017-Nov-08 16:50N 48°14' W 125°47'3 7.0
2017-Nov-08 16:28N 48°15' W 125°44'3 7.4
2017-Nov-08 16:00N 48°17' W 125°40'3 6.9
2017-Nov-08 15:30N 48°19' W 125°35'3 6.9
2017-Nov-08 15:00N 48°21' W 125°31'3 6.4
2017-Nov-08 14:28N 48°23' W 125°27'4 7.9
2017-Nov-08 13:59N 48°25' W 125°22'4 8.0
2017-Nov-08 13:30N 48°27' W 125°18'4 8.1
2017-Nov-08 13:00N 48°29' W 125°12'4 8.5
2017-Nov-08 12:29N 48°31' W 125°06'4 9.0
2017-Nov-08 12:00N 48°31' W 124°60'5 9.6
2017-Nov-08 11:30N 48°31' W 124°53'5 9.2
2017-Nov-08 11:00N 48°31' W 124°46'510.5
2017-Nov-08 10:30N 48°29' W 124°38'713.4
2017-Nov-08 10:00N 48°26' W 124°29'713.9
2017-Nov-08 09:30N 48°24' W 124°19'714.0
2017-Nov-08 09:00N 48°21' W 124°10'714.1
2017-Nov-08 08:30N 48°18' W 123°60'815.3
2017-Nov-08 08:00N 48°17' W 123°49'816.8
2017-Nov-08 07:31N 48°15' W 123°36'815.1
2017-Nov-08 06:58N 48°12' W 123°25'4 9.4
2017-Nov-08 06:31N 48°09' W 123°20'713.2
2017-Nov-08 06:00N 48°13' W 123°12'713.1
2017-Nov-08 05:30N 48°20' W 123°13'816.3
2017-Nov-08 05:00N 48°28' W 123°12'816.1
2017-Nov-08 04:31N 48°36' W 123°14'713.5
2017-Nov-08 04:00N 48°42' W 123°14'815.1
2017-Nov-08 03:30N 48°46' W 123°04'713.9
2017-Nov-08 03:00N 48°50' W 122°55'611.7
2017-Nov-08 02:30N 48°51' W 122°46'1 0.0
2017-Nov-06 22:59N 48°52' W 122°45'0 1.0
2017-Nov-06 22:30N 48°51' W 122°45'1 2.2
2017-Nov-06 22:00N 48°50' W 122°45'1 2.2
2017-Nov-06 21:30N 48°49' W 122°45'2 3.6
2017-Nov-06 20:59N 48°47' W 122°45'4 7.1
2017-Nov-06 20:29N 48°44' W 122°45'11 0.6
2017-Nov-06 02:29N 48°36' W 122°33'0 0.0
2017-Nov-06 01:56N 48°36' W 122°33'0 0.0
2017-Nov-06 01:26N 48°36' W 122°33'0 0.0
2017-Nov-06 00:59N 48°36' W 122°33'0 0.0
2017-Nov-06 00:29N 48°36' W 122°33'0 0.1
2017-Nov-05 23:50N 48°36' W 122°33'0 0.0
2017-Nov-05 23:23N 48°36' W 122°33'0 0.0
2017-Nov-05 22:56N 48°36' W 122°33'0 0.0
2017-Nov-05 22:29N 48°36' W 122°33'0 0.0
2017-Nov-05 21:59N 48°36' W 122°33'0 0.0
2017-Nov-05 21:29N 48°36' W 122°33'0 0.1
2017-Nov-05 20:59N 48°36' W 122°32'0 0.0
2017-Nov-05 20:29N 48°36' W 122°32'0 0.1
2017-Nov-05 19:59N 48°36' W 122°33'0 0.1
2017-Nov-05 19:29N 48°36' W 122°33'0 0.1
2017-Nov-05 18:50N 48°36' W 122°33'0 0.1
2017-Nov-05 18:26N 48°36' W 122°33'0 0.1
2017-Nov-05 17:59N 48°36' W 122°33'0 0.1
2017-Nov-05 17:26N 48°36' W 122°33'0 0.0
2017-Nov-05 16:53N 48°36' W 122°33'0 0.0
2017-Nov-05 16:11N 48°36' W 122°33'0 0.0
2017-Nov-05 15:47N 48°36' W 122°33'0 0.1
2017-Nov-05 15:23N 48°36' W 122°33'0 0.0
2017-Nov-05 14:56N 48°36' W 122°33'0 0.1
2017-Nov-05 14:29N 48°36' W 122°33'0 0.1
2017-Nov-05 13:44N 48°36' W 122°33'0 0.0
2017-Nov-05 13:26N 48°36' W 122°33'0 0.0
2017-Nov-05 12:59N 48°36' W 122°33'0 0.0
2017-Nov-05 12:20N 48°36' W 122°33'0 0.0
2017-Nov-05 11:59N 48°36' W 122°33'0 0.0
2017-Nov-05 11:29N 48°36' W 122°33'0 0.1
2017-Nov-05 10:59N 48°36' W 122°32'0 0.1
2017-Nov-05 10:26N 48°36' W 122°32'0 0.1
2017-Nov-05 09:53N 48°36' W 122°32'0 0.1
2017-Nov-05 09:23N 48°36' W 122°32'0 0.0
2017-Nov-05 08:56N 48°36' W 122°32'0 0.1
2017-Nov-05 08:29N 48°36' W 122°32'0 0.0
2017-Nov-05 07:56N 48°36' W 122°32'0 0.0
2017-Nov-05 07:29N 48°36' W 122°32'0 0.0
2017-Nov-05 06:59N 48°36' W 122°32'0 0.1
2017-Nov-05 06:26N 48°36' W 122°33'0 0.1
2017-Nov-05 05:56N 48°36' W 122°33'0 0.0
2017-Nov-05 05:23N 48°36' W 122°33'0 0.0
2017-Nov-05 04:59N 48°36' W 122°33'0 0.1
2017-Nov-05 04:29N 48°36' W 122°33'0 0.0
2017-Nov-05 03:59N 48°36' W 122°33'0 0.1
2017-Nov-05 03:29N 48°36' W 122°33'0 0.1
2017-Nov-05 02:59N 48°36' W 122°33'0 0.1
2017-Nov-05 02:23N 48°36' W 122°33'0 0.0
2017-Nov-05 01:59N 48°36' W 122°33'0 0.1
2017-Nov-05 01:20N 48°36' W 122°33'0 0.2
2017-Nov-05 00:59N 48°36' W 122°33'0 0.2
2017-Nov-05 00:29N 48°36' W 122°33'0 0.1
2017-Nov-04 23:56N 48°36' W 122°32'0 0.1
2017-Nov-04 23:29N 48°36' W 122°32'0 0.0
2017-Nov-04 22:59N 48°36' W 122°32'0 0.0
2017-Nov-04 22:29N 48°36' W 122°32'0 0.0
2017-Nov-04 21:59N 48°36' W 122°32'0 0.0
2017-Nov-04 21:29N 48°36' W 122°32'0 0.2
2017-Nov-04 20:59N 48°36' W 122°33'0 0.2
2017-Nov-04 20:14N 48°36' W 122°33'0 0.0
2017-Nov-04 19:59N 48°36' W 122°33'0 0.0
2017-Nov-04 19:14N 48°36' W 122°33'0 0.0
2017-Nov-04 18:52N 48°36' W 122°33'0 0.1
2017-Nov-04 18:28N 48°36' W 122°33'0 0.1
2017-Nov-04 17:59N 48°36' W 122°33'0 0.1
2017-Nov-04 17:26N 48°36' W 122°33'0 0.1
2017-Nov-04 16:47N 48°36' W 122°33'0 0.0
2017-Nov-04 15:53N 48°36' W 122°33'0 0.1
2017-Nov-04 15:23N 48°36' W 122°33'0 0.1
2017-Nov-04 14:53N 48°36' W 122°33'0 0.1
2017-Nov-04 14:29N 48°36' W 122°33'0 0.1
2017-Nov-04 13:50N 48°36' W 122°33'0 0.0
2017-Nov-04 13:26N 48°36' W 122°33'0 0.1
2017-Nov-04 12:59N 48°36' W 122°33'0 0.0
2017-Nov-04 12:29N 48°36' W 122°33'0 0.1
2017-Nov-04 11:56N 48°36' W 122°32'0 0.0
2017-Nov-04 11:29N 48°36' W 122°32'0 0.0
2017-Nov-04 10:59N 48°36' W 122°32'0 0.0
2017-Nov-04 10:29N 48°36' W 122°32'0 0.1
2017-Nov-04 09:56N 48°36' W 122°32'0 0.1
2017-Nov-04 09:29N 48°36' W 122°32'0 0.1
2017-Nov-04 08:59N 48°36' W 122°32'0 0.1
2017-Nov-04 08:29N 48°36' W 122°32'0 0.1
2017-Nov-04 07:56N 48°36' W 122°33'0 0.0
2017-Nov-04 07:26N 48°36' W 122°33'0 0.1
2017-Nov-04 06:56N 48°36' W 122°33'0 0.1
2017-Nov-04 06:26N 48°36' W 122°33'0 0.1
2017-Nov-04 05:59N 48°36' W 122°33'0 0.1
2017-Nov-04 05:20N 48°36' W 122°33'0 0.1
2017-Nov-04 04:53N 48°36' W 122°33'0 0.0
2017-Nov-04 04:20N 48°36' W 122°33'0 0.0
2017-Nov-04 03:56N 48°36' W 122°33'0 0.0
2017-Nov-04 03:29N 48°36' W 122°33'0 0.0
2017-Nov-04 02:50N 48°36' W 122°33'0 0.0
2017-Nov-04 02:29N 48°36' W 122°33'0 0.0
2017-Nov-04 01:56N 48°36' W 122°33'0 0.0
2017-Nov-04 01:26N 48°36' W 122°33'0 0.0
2017-Nov-04 00:59N 48°36' W 122°33'0 0.1
2017-Nov-04 00:29N 48°36' W 122°33'0 0.1
2017-Nov-03 23:56N 48°36' W 122°33'0 0.1
2017-Nov-03 23:29N 48°36' W 122°33'0 0.0
2017-Nov-03 22:56N 48°36' W 122°33'0 0.0
2017-Nov-03 22:29N 48°36' W 122°33'0 0.0
2017-Nov-03 21:44N 48°36' W 122°33'0 0.0
2017-Nov-03 21:26N 48°36' W 122°33'0 0.0
2017-Nov-03 20:56N 48°36' W 122°33'0 0.0
2017-Nov-03 20:29N 48°36' W 122°33'0 0.0
2017-Nov-03 19:56N 48°36' W 122°33'0 0.0
2017-Nov-03 19:26N 48°36' W 122°33'0 0.0
2017-Nov-03 18:56N 48°36' W 122°33'0 0.0
2017-Nov-03 18:29N 48°36' W 122°33'0 0.0
2017-Nov-03 17:53N 48°36' W 122°33'0 0.0
2017-Nov-03 17:29N 48°36' W 122°33'0 0.0
2017-Nov-03 16:59N 48°36' W 122°33'0 0.1
2017-Nov-03 16:29N 48°36' W 122°33'0 0.0
2017-Nov-03 15:56N 48°36' W 122°33'0 0.0
2017-Nov-03 15:26N 48°36' W 122°33'0 0.1
2017-Nov-03 14:59N 48°36' W 122°33'0 0.1
2017-Nov-03 14:26N 48°36' W 122°33'0 0.1
2017-Nov-03 13:56N 48°36' W 122°33'0 0.2
2017-Nov-03 13:26N 48°36' W 122°33'0 0.1
2017-Nov-03 12:59N 48°36' W 122°32'0 0.0
2017-Nov-03 12:29N 48°36' W 122°32'0 0.0
2017-Nov-03 11:59N 48°36' W 122°32'0 0.1
2017-Nov-03 11:23N 48°36' W 122°33'0 0.1
2017-Nov-03 10:53N 48°36' W 122°33'0 0.1
2017-Nov-03 10:29N 48°36' W 122°33'0 0.0
2017-Nov-03 09:59N 48°36' W 122°33'0 0.0
2017-Nov-03 09:29N 48°36' W 122°33'0 0.1
2017-Nov-03 08:50N 48°36' W 122°33'0 0.0
2017-Nov-03 08:23N 48°36' W 122°33'0 0.0
2017-Nov-03 07:56N 48°36' W 122°33'0 0.1
2017-Nov-03 07:29N 48°36' W 122°33'0 0.1
2017-Nov-03 06:56N 48°36' W 122°33'0 0.1
2017-Nov-03 06:20N 48°36' W 122°33'0 0.1
2017-Nov-03 05:53N 48°36' W 122°33'0 0.1
2017-Nov-03 05:29N 48°36' W 122°33'0 0.0
2017-Nov-03 04:56N 48°36' W 122°33'0 0.0
2017-Nov-03 04:29N 48°36' W 122°33'0 0.0
2017-Nov-03 03:59N 48°36' W 122°33'0 0.1
2017-Nov-03 03:29N 48°36' W 122°33'0 0.1
2017-Nov-03 02:59N 48°36' W 122°33'0 0.0
2017-Nov-03 02:29N 48°36' W 122°33'0 0.2
2017-Nov-03 01:59N 48°36' W 122°33'0 0.2
2017-Nov-03 01:29N 48°36' W 122°33'0 0.2
2017-Nov-03 00:59N 48°36' W 122°33'0 0.1
2017-Nov-03 00:26N 48°36' W 122°33'0 0.4
2017-Nov-02 23:59N 48°36' W 122°32'0 0.3
2017-Nov-02 23:29N 48°36' W 122°32'0 0.1
2017-Nov-02 22:59N 48°36' W 122°32'0 0.1
2017-Nov-02 22:29N 48°36' W 122°32'0 0.0
2017-Nov-02 21:59N 48°36' W 122°32'0 0.1
2017-Nov-02 21:23N 48°36' W 122°32'0 0.1
2017-Nov-02 20:59N 48°36' W 122°32'0 0.0
2017-Nov-02 20:29N 48°36' W 122°32'0 0.1
2017-Nov-02 19:59N 48°36' W 122°32'0 0.1
2017-Nov-02 19:29N 48°36' W 122°32'0 0.3
2017-Nov-02 18:53N 48°36' W 122°33'0 0.0
2017-Nov-02 18:29N 48°36' W 122°33'0 0.0
2017-Nov-02 17:59N 48°36' W 122°33'0 0.0
2017-Nov-02 17:29N 48°36' W 122°33'0 0.0
2017-Nov-02 16:11N 48°36' W 122°33'0 0.0
2017-Nov-02 15:59N 48°36' W 122°33'0 0.0
2017-Nov-02 15:26N 48°36' W 122°33'0 0.0
2017-Nov-02 14:59N 48°36' W 122°33'0 0.0
2017-Nov-02 14:29N 48°36' W 122°33'0 0.2
2017-Nov-02 13:56N 48°36' W 122°33'0 0.0
2017-Nov-02 13:29N 48°36' W 122°33'0 0.1
2017-Nov-02 12:59N 48°36' W 122°33'0 0.0
2017-Nov-02 12:29N 48°36' W 122°33'0 0.1
2017-Nov-02 11:59N 48°36' W 122°33'0 0.0
2017-Nov-02 11:29N 48°36' W 122°33'0 0.0
2017-Nov-02 10:59N 48°36' W 122°33'0 0.0
2017-Nov-02 10:26N 48°36' W 122°33'0 0.0
2017-Nov-02 09:59N 48°36' W 122°33'0 0.0
2017-Nov-02 09:29N 48°36' W 122°33'0 0.0
2017-Nov-02 08:59N 48°36' W 122°33'0 0.0
2017-Nov-02 08:29N 48°36' W 122°33'0 0.0
2017-Nov-02 07:59N 48°36' W 122°33'0 0.0
2017-Nov-02 07:26N 48°36' W 122°33'0 0.1
2017-Nov-02 06:50N 48°36' W 122°33'0 0.1
2017-Nov-02 06:29N 48°36' W 122°33'0 0.2
2017-Nov-02 05:59N 48°36' W 122°33'0 0.1
2017-Nov-02 05:29N 48°36' W 122°33'0 0.0
2017-Nov-02 04:59N 48°36' W 122°33'0 0.0
2017-Nov-02 04:29N 48°36' W 122°33'0 0.0
2017-Nov-02 03:59N 48°36' W 122°33'0 0.1
2017-Nov-02 03:26N 48°36' W 122°33'0 0.0
2017-Nov-02 02:59N 48°36' W 122°33'0 0.0
2017-Nov-02 02:29N 48°36' W 122°33'0 0.2
2017-Nov-02 01:56N 48°36' W 122°33'0 0.1
2017-Nov-02 01:29N 48°36' W 122°33'0 0.1
2017-Nov-02 00:56N 48°36' W 122°33'0 0.0
2017-Nov-02 00:29N 48°36' W 122°33'0 0.0
2017-Nov-01 23:56N 48°36' W 122°33'0 0.0
2017-Nov-01 23:29N 48°36' W 122°33'0 0.1
2017-Nov-01 22:59N 48°36' W 122°32'0 0.0
2017-Nov-01 22:29N 48°36' W 122°32'0 0.0
2017-Nov-01 21:59N 48°36' W 122°32'0 0.0
2017-Nov-01 21:29N 48°36' W 122°32'0 0.0
2017-Nov-01 20:56N 48°36' W 122°32'0 0.1
2017-Nov-01 20:29N 48°36' W 122°32'0 0.0
2017-Nov-01 19:59N 48°36' W 122°32'0 0.0
2017-Nov-01 19:29N 48°36' W 122°32'0 0.1
2017-Nov-01 18:59N 48°36' W 122°32'0 0.0
2017-Nov-01 18:29N 48°36' W 122°32'0 0.0
2017-Nov-01 01:59N 48°36' W 122°33'0 0.2
2017-Nov-01 01:29N 48°36' W 122°33'0 0.2
2017-Nov-01 00:59N 48°36' W 122°32'0 0.1
2017-Nov-01 00:29N 48°36' W 122°32'0 0.1
2017-Oct-31 23:59N 48°36' W 122°32'0 0.0
2017-Oct-31 23:29N 48°36' W 122°32'0 0.1
2017-Oct-31 22:56N 48°36' W 122°32'0 0.0
2017-Oct-31 22:29N 48°36' W 122°32'0 0.1
2017-Oct-31 21:59N 48°36' W 122°32'0 0.1
2017-Oct-31 21:29N 48°36' W 122°32'0 0.0
2017-Oct-31 20:59N 48°36' W 122°32'0 0.1
2017-Oct-31 20:29N 48°36' W 122°32'0 0.0
2017-Oct-31 19:59N 48°36' W 122°32'0 0.1
2017-Oct-31 19:29N 48°36' W 122°32'0 0.1
2017-Oct-31 18:59N 48°36' W 122°32'0 0.0
2017-Oct-31 18:29N 48°36' W 122°32'0 0.0
2017-Oct-31 17:59N 48°36' W 122°32'0 0.0
2017-Oct-31 17:23N 48°36' W 122°32'0 0.1
2017-Oct-31 16:59N 48°36' W 122°33'0 0.1
2017-Oct-31 16:29N 48°36' W 122°33'0 0.1
2017-Oct-31 15:59N 48°36' W 122°33'0 0.1
2017-Oct-31 15:29N 48°36' W 122°32'0 0.0
2017-Oct-31 14:59N 48°36' W 122°32'0 0.1
2017-Oct-31 14:29N 48°36' W 122°32'0 0.0
2017-Oct-31 13:53N 48°36' W 122°32'0 0.2
2017-Oct-31 13:20N 48°36' W 122°32'0 0.1
2017-Oct-31 12:59N 48°36' W 122°32'0 0.0
2017-Oct-31 12:29N 48°36' W 122°32'0 0.1
2017-Oct-31 11:59N 48°36' W 122°32'0 0.0
2017-Oct-31 11:26N 48°36' W 122°32'0 0.0
2017-Oct-31 10:59N 48°36' W 122°32'0 0.0
2017-Oct-31 10:29N 48°36' W 122°32'0 0.0
2017-Oct-31 09:59N 48°36' W 122°32'0 0.0
2017-Oct-31 09:29N 48°36' W 122°32'0 0.0
2017-Oct-31 08:59N 48°36' W 122°32'0 0.1
2017-Oct-31 08:29N 48°36' W 122°32'0 0.0
2017-Oct-31 07:59N 48°36' W 122°32'0 0.0
2017-Oct-31 07:29N 48°36' W 122°32'0 0.0
2017-Oct-31 06:59N 48°36' W 122°32'0 0.3
2017-Oct-31 06:29N 48°36' W 122°33'0 0.2
2017-Oct-31 05:56N 48°36' W 122°33'0 0.0
2017-Oct-31 05:29N 48°36' W 122°33'0 0.1
2017-Oct-31 04:53N 48°36' W 122°33'0 0.1
2017-Oct-31 04:23N 48°36' W 122°33'0 0.0
2017-Oct-31 03:59N 48°36' W 122°33'0 0.0
2017-Oct-31 03:29N 48°36' W 122°33'0 0.0
2017-Oct-31 02:59N 48°36' W 122°33'0 0.0
2017-Oct-31 02:29N 48°36' W 122°33'0 0.0
2017-Oct-31 01:59N 48°36' W 122°33'0 0.0
2017-Oct-31 01:23N 48°36' W 122°33'0 0.1
2017-Oct-31 00:59N 48°36' W 122°33'0 0.0
2017-Oct-31 00:23N 48°36' W 122°33'0 0.0
2017-Oct-30 23:59N 48°36' W 122°33'0 0.0
2017-Oct-30 23:29N 48°36' W 122°33'0 0.1
2017-Oct-30 22:59N 48°36' W 122°32'0 0.0
2017-Oct-30 22:23N 48°36' W 122°32'0 0.1
2017-Oct-30 21:56N 48°36' W 122°32'0 0.1
2017-Oct-30 21:23N 48°36' W 122°32'0 0.1
2017-Oct-30 20:59N 48°36' W 122°32'0 0.1
2017-Oct-30 20:29N 48°36' W 122°32'0 0.0
2017-Oct-30 19:59N 48°36' W 122°32'0 0.0
2017-Oct-30 19:29N 48°36' W 122°32'0 0.1
2017-Oct-30 18:59N 48°36' W 122°32'0 0.1
2017-Oct-30 18:29N 48°36' W 122°32'0 0.0
2017-Oct-30 17:59N 48°36' W 122°32'0 0.1
2017-Oct-30 17:29N 48°36' W 122°32'0 0.1
2017-Oct-30 16:59N 48°36' W 122°32'0 0.1
2017-Oct-30 16:29N 48°36' W 122°32'0 0.0
2017-Oct-30 15:56N 48°36' W 122°32'0 0.1
2017-Oct-30 15:11N 48°36' W 122°33'0 0.2
2017-Oct-30 14:59N 48°36' W 122°32'0 0.1
2017-Oct-30 14:29N 48°36' W 122°33'0 0.0
2017-Oct-30 13:26N 48°36' W 122°33'0 0.1
2017-Oct-30 12:59N 48°36' W 122°33'0 0.1
2017-Oct-30 12:29N 48°36' W 122°32'0 0.1
2017-Oct-30 11:56N 48°36' W 122°32'0 0.1
2017-Oct-30 11:29N 48°36' W 122°32'0 0.1
2017-Oct-30 10:59N 48°36' W 122°32'0 0.0
2017-Oct-30 10:29N 48°36' W 122°32'0 0.0
2017-Oct-30 09:59N 48°36' W 122°32'0 0.0
2017-Oct-30 09:29N 48°36' W 122°32'0 0.0
2017-Oct-30 08:53N 48°36' W 122°32'0 0.0
2017-Oct-30 08:29N 48°36' W 122°32'0 0.0
2017-Oct-30 07:50N 48°36' W 122°32'0 0.0
2017-Oct-30 07:26N 48°36' W 122°32'0 0.0
2017-Oct-30 06:56N 48°36' W 122°32'0 0.0
2017-Oct-30 06:29N 48°36' W 122°32'0 0.0
2017-Oct-30 05:59N 48°36' W 122°32'0 0.1
2017-Oct-30 05:29N 48°36' W 122°32'0 0.0
2017-Oct-30 04:59N 48°36' W 122°32'0 0.1
2017-Oct-30 04:23N 48°36' W 122°32'0 0.0
2017-Oct-30 03:56N 48°36' W 122°32'0 0.1
2017-Oct-30 03:26N 48°36' W 122°32'0 0.1
2017-Oct-30 02:59N 48°36' W 122°33'0 0.0
2017-Oct-30 02:29N 48°36' W 122°33'0 0.1
2017-Oct-30 01:59N 48°36' W 122°33'0 0.1
2017-Oct-30 01:26N 48°36' W 122°33'0 0.1
2017-Oct-30 00:50N 48°36' W 122°33'0 0.1
2017-Oct-30 00:29N 48°36' W 122°33'0 0.1
2017-Oct-29 23:59N 48°36' W 122°33'0 0.0
2017-Oct-29 23:29N 48°36' W 122°33'0 0.1
2017-Oct-29 22:59N 48°36' W 122°33'0 0.0
2017-Oct-29 22:29N 48°36' W 122°33'0 0.0
2017-Oct-29 21:59N 48°36' W 122°33'0 0.0
2017-Oct-29 21:26N 48°36' W 122°33'0 0.1
2017-Oct-29 20:53N 48°36' W 122°32'0 0.1
2017-Oct-29 20:29N 48°36' W 122°32'0 0.1
2017-Oct-29 19:59N 48°36' W 122°32'0 0.0
2017-Oct-29 19:29N 48°36' W 122°32'0 0.0
2017-Oct-29 18:50N 48°36' W 122°32'0 0.0
2017-Oct-29 18:26N 48°36' W 122°32'0 0.1
2017-Oct-29 17:59N 48°36' W 122°32'0 0.1
2017-Oct-29 17:26N 48°36' W 122°32'0 0.1
2017-Oct-29 16:59N 48°36' W 122°32'  

Dump ship's entire track history